Twin Lake, MI (49457)

11:45 PM EST on March 01, 2015 (GMT -0500)
98.9FM Real Gold Radio station - 1.6 mi SE of DT Whitehall, MI | Change Station
CLOSE
Current Station
Personal Weather Station
Location: Whitehall, MI
Elevation: 712 ft
Nearby Weather Stations

Elev 712 ft 43.39 °N, 86.33 °W | Updated 9 minutes ago

Snow
Snow
25.2 °F
Feels Like 14 °F
N
13.0
Wind Variable Wind from NW
Gusts 17.0 mph

Today
High -- | Low -- °F
--% Chance of Precip.
Yesterday
High -- | Low -- °F
Precip. -- in
7:21 AM 6:33 PM
Waxing Gibbous, 89% visible
Pressure 30.21 in
Visibility 10.0 miles
Clouds Scattered Clouds 2300 ft
Scattered Clouds 3400 ft
Mostly Cloudy 4800 ft
Windchill 14 °F
Dew Point 17 °F
Humidity 71%
Rainfall 0.00 in
Snow Depth Not available.
UV 0 out of 12
Pollen .30 out of 12
Air Quality Not available.
Flu Activity Not available.
METAR KFFX 020430Z AUTO 31013G18KT 10SM SCT023 SCT034 BKN048 M04/M11 A3021 RMK AO2 T10441106

More Conditions Fewer Conditions

Pressure 30.21 in
Visibility 10.0 miles
Clouds Scattered Clouds 2300 ft
Scattered Clouds 3400 ft
Mostly Cloudy 4800 ft
Windchill 14 °F
Dew Point 17 °F
Humidity 71%
Rainfall 0.00 in
Snow Depth Not available.
UV 0 out of 12
Pollen .30 out of 12
Air Quality Not available.
Flu Activity Not available.
METAR KFFX 020430Z AUTO 31013G18KT 10SM SCT023 SCT034 BKN048 M04/M11 A3021 RMK AO2 T10441106

More Conditions Fewer Conditions

10-Day Weather Forecast

Almanac

Astronomy

Mar. 01, 2015 Rise Set
Actual Time
Civil Twilight
Nautical Twilight
Astronomical Twilight
Moon
Length of Visible Light
Length of Day
Tomorrow will be .
, % of the Moon is Illuminated

Today's Extremes

State Highs State Lows

Community

WunderPhotos

Upload Photos

1,801,725 photos uploaded!

WunderBlogs® & News

Nearby

Air Quality

  Air Quality AQ Index Pollutant
Not available.

Snow Depth

Station Depth Elevation

Earthquake Activity

City Distance Mag. Time & Date
Minimum magnitude displayed is 2.5.

Coastal Water Temperatures

Place Temperature

Nearby Weather Stations